Time;durP1;ratioP1;P1;durP2;ratioP2;P2;SDS_P1;SDS_P2;PMS_P1;PMS_P2;Temp;Humidity;BMP_temperature;BMP_pressure;BME280_temperature;BME280_humidity;BME280_pressure;Samples;Min_cycle;Max_cycle;Signal;HPM_P1;HPM_P2
2022/10/06 00:01:35;;;;;;;10.32;1.42;;;14.40;99.90;;;;;;4100075;29;20213;-93
2022/10/06 00:03:37;;;;;;;16.35;1.75;;;14.50;99.90;;;;;;4084450;29;20198;-94
2022/10/06 00:05:38;;;;;;;14.93;1.58;;;14.40;99.90;;;;;;4084329;29;20227;-88
2022/10/06 00:07:38;;;;;;;12.45;1.58;;;14.30;99.90;;;;;;4100316;29;20643;-91
2022/10/06 00:09:40;;;;;;;15.73;1.45;;;14.40;99.90;;;;;;4084336;29;20235;-91
2022/10/06 00:11:40;;;;;;;14.43;1.48;;;14.50;99.90;;;;;;4100271;29;20190;-95
2022/10/06 00:13:41;;;;;;;11.80;1.60;;;14.50;99.90;;;;;;4084180;29;20669;-88
2022/10/06 00:15:42;;;;;;;9.80;1.05;;;14.60;99.90;;;;;;4084370;29;20270;-89
2022/10/06 00:17:43;;;;;;;19.13;1.88;;;14.40;99.90;;;;;;4100043;29;20167;-88
2022/10/06 00:19:43;;;;;;;10.23;1.30;;;14.50;99.90;;;;;;4084302;29;20211;-94
2022/10/06 00:21:44;;;;;;;14.65;1.50;;;14.50;99.90;;;;;;4100293;29;20166;-88
2022/10/06 00:23:45;;;;;;;17.55;1.48;;;14.40;99.90;;;;;;4100221;29;20171;-89
2022/10/06 00:25:46;;;;;;;7.43;1.40;;;14.10;99.90;;;;;;4100051;29;20189;-88
2022/10/06 00:27:49;;;;;;;18.00;1.33;;;14.20;99.90;;;;;;4100218;29;20576;-88
2022/10/06 00:29:51;;;;;;;12.88;1.88;;;14.10;99.90;;;;;;4084430;29;20195;-94
2022/10/06 00:31:51;;;;;;;12.07;1.30;;;14.10;99.90;;;;;;4084365;29;20175;-95
2022/10/06 00:33:52;;;;;;;17.83;1.60;;;14.10;99.90;;;;;;4099999;29;20183;-88
2022/10/06 00:35:57;;;;;;;18.70;2.40;;;14.00;99.90;;;;;;4083958;29;20218;-89
2022/10/06 00:37:59;;;;;;;14.48;1.65;;;14.00;99.90;;;;;;4084062;29;20238;-88
2022/10/06 00:40:00;;;;;;;17.85;1.75;;;13.90;99.90;;;;;;4099767;28;20195;-88
2022/10/06 00:42:01;;;;;;;12.40;1.88;;;14.00;99.90;;;;;;4083896;29;20168;-95
2022/10/06 00:44:01;;;;;;;14.88;1.63;;;13.90;99.90;;;;;;4084046;29;20194;-88
2022/10/06 00:46:02;;;;;;;15.23;2.67;;;14.10;99.90;;;;;;4084281;29;20183;-89
2022/10/06 00:48:28;;;;;;;16.67;2.00;;;14.00;99.90;;;;;;4084029;28;20168;-94
2022/10/06 00:50:30;;;;;;;10.43;1.52;;;13.90;99.90;;;;;;4083757;29;20211;-88
2022/10/06 00:52:31;;;;;;;14.73;1.45;;;13.80;99.90;;;;;;4083854;29;20175;-91
2022/10/06 00:54:33;;;;;;;10.88;1.70;;;13.90;99.90;;;;;;4083614;29;20671;-88
2022/10/06 00:56:34;;;;;;;12.68;2.13;;;13.90;99.90;;;;;;4085703;29;20270;-89
2022/10/06 00:58:34;;;;;;;11.43;1.55;;;13.90;99.90;;;;;;4087362;29;20167;-89
2022/10/06 01:00:35;;;;;;;16.27;1.75;;;13.90;99.90;;;;;;4087236;29;20206;-90
2022/10/06 01:02:46;;;;;;;14.35;1.77;;;13.90;99.90;;;;;;4087214;29;20175;-88
2022/10/06 01:04:51;;;;;;;19.95;2.05;;;13.90;99.90;;;;;;4087138;29;20701;-95
2022/10/06 01:06:55;;;;;;;18.77;2.10;;;14.00;99.90;;;;;;4103863;28;20179;-88
2022/10/06 01:08:56;;;;;;;21.95;2.28;;;13.90;99.90;;;;;;4086898;29;20316;-88
2022/10/06 01:10:57;;;;;;;19.10;2.22;;;13.90;99.90;;;;;;4086571;29;20299;-88
2022/10/06 01:12:58;;;;;;;12.90;1.98;;;14.00;99.90;;;;;;4102856;28;20179;-95
2022/10/06 01:14:59;;;;;;;10.63;1.50;;;13.90;99.90;;;;;;4086617;29;20254;-89
2022/10/06 01:17:10;;;;;;;16.98;2.13;;;13.70;99.90;;;;;;4102549;29;20249;-88
2022/10/06 01:19:29;;;;;;;15.82;1.60;;;13.70;99.90;;;;;;4086751;29;20172;-88
2022/10/06 01:21:39;;;;;;;15.98;1.80;;;13.90;99.90;;;;;;4086831;29;20183;-90
2022/10/06 01:23:42;;;;;;;19.25;1.80;;;13.70;99.90;;;;;;4086788;29;20262;-89
2022/10/06 01:25:43;;;;;;;13.20;1.95;;;13.60;99.90;;;;;;4086441;29;20597;-89
2022/10/06 01:27:52;;;;;;;17.20;1.85;;;13.60;99.90;;;;;;4086997;29;20610;-89
2022/10/06 01:29:54;;;;;;;16.70;2.10;;;13.60;99.90;;;;;;4086817;29;20742;-92
2022/10/06 01:31:55;;;;;;;16.55;1.70;;;13.50;99.90;;;;;;4086483;29;20183;-93
2022/10/06 01:33:56;;;;;;;17.23;1.90;;;13.50;99.90;;;;;;4102358;28;20175;-88
2022/10/06 01:35:57;;;;;;;13.15;2.03;;;13.50;99.90;;;;;;4086404;29;20212;-88
2022/10/06 01:37:58;;;;;;;15.40;1.90;;;13.40;99.90;;;;;;4086407;29;20180;-88
2022/10/06 01:40:00;;;;;;;15.73;2.45;;;13.30;99.90;;;;;;4102223;28;20286;-88
2022/10/06 01:42:00;;;;;;;22.48;2.38;;;13.40;99.90;;;;;;4101936;29;20183;-89
2022/10/06 01:44:01;;;;;;;25.15;2.17;;;13.40;99.90;;;;;;4086327;29;20183;-89
2022/10/06 01:46:02;;;;;;;19.05;2.42;;;13.40;99.90;;;;;;4102184;29;20163;-87
2022/10/06 01:48:04;;;;;;;15.20;1.98;;;13.40;99.90;;;;;;4086118;29;20186;-88
2022/10/06 01:50:06;;;;;;;15.05;2.00;;;13.40;99.90;;;;;;4102097;28;20202;-88
2022/10/06 01:52:08;;;;;;;19.25;1.83;;;13.30;99.90;;;;;;4102169;28;20277;-88
2022/10/06 01:54:09;;;;;;;17.00;1.92;;;13.20;99.90;;;;;;4086130;29;20179;-88
2022/10/06 01:56:10;;;;;;;16.27;2.30;;;13.30;99.90;;;;;;4101983;29;20242;-95
2022/10/06 01:58:11;;;;;;;20.13;2.17;;;13.30;99.90;;;;;;4086050;29;20172;-88
2022/10/06 02:00:13;;;;;;;17.63;1.88;;;13.30;99.90;;;;;;4085863;29;20294;-88
2022/10/06 02:02:15;;;;;;;16.48;1.77;;;13.30;99.90;;;;;;4101833;29;20206;-91
2022/10/06 02:04:16;;;;;;;12.10;1.77;;;13.20;99.90;;;;;;4085981;29;20176;-88
2022/10/06 02:06:17;;;;;;;13.38;2.00;;;13.20;99.90;;;;;;4102093;29;20191;-88
2022/10/06 02:08:18;;;;;;;10.93;2.00;;;13.20;99.90;;;;;;4085064;29;20254;-88
2022/10/06 02:10:20;;;;;;;17.25;2.50;;;13.20;99.90;;;;;;4101781;28;20190;-89
2022/10/06 02:12:22;;;;;;;14.45;2.10;;;13.10;99.90;;;;;;4086121;29;20292;-95
2022/10/06 02:14:23;;;;;;;15.05;1.55;;;13.00;99.90;;;;;;4085690;29;20279;-89
2022/10/06 02:16:24;;;;;;;18.92;2.13;;;13.00;99.90;;;;;;4085731;29;20180;-88
2022/10/06 02:18:25;;;;;;;14.55;1.85;;;13.10;99.90;;;;;;4086150;29;20172;-89
2022/10/06 02:20:28;;;;;;;21.70;1.92;;;13.10;99.90;;;;;;4085928;28;20235;-95
2022/10/06 02:22:29;;;;;;;18.70;2.13;;;13.00;99.90;;;;;;4086002;29;20596;-95
2022/10/06 02:24:30;;;;;;;18.27;1.98;;;13.00;99.90;;;;;;4086096;29;20179;-93
2022/10/06 02:26:31;;;;;;;15.55;1.92;;;13.00;99.90;;;;;;4085622;29;20167;-94
2022/10/06 02:28:32;;;;;;;13.80;1.65;;;13.00;99.90;;;;;;4085744;29;20187;-93
2022/10/06 02:30:35;;;;;;;19.33;2.22;;;13.00;99.90;;;;;;4086023;29;20191;-88
2022/10/06 02:32:39;;;;;;;13.15;1.73;;;13.00;99.90;;;;;;4085761;29;20180;-88
2022/10/06 02:34:41;;;;;;;16.17;2.88;;;13.00;99.90;;;;;;4085826;29;20172;-92
2022/10/06 02:36:42;;;;;;;12.77;1.60;;;13.10;99.90;;;;;;4085715;29;20212;-88
2022/10/06 02:38:43;;;;;;;12.50;1.75;;;13.00;99.90;;;;;;4085527;29;20175;-95
2022/10/06 02:40:44;;;;;;;18.20;1.88;;;12.90;99.90;;;;;;4101102;28;20202;-92
2022/10/06 02:42:44;;;;;;;17.27;2.30;;;12.80;99.90;;;;;;4101248;29;20245;-90
2022/10/06 02:44:48;;;;;;;21.95;2.35;;;12.80;99.90;;;;;;4085677;29;20206;-88
2022/10/06 02:46:49;;;;;;;20.40;2.20;;;12.80;99.90;;;;;;4101291;29;20174;-94
2022/10/06 02:48:52;;;;;;;15.38;1.85;;;12.80;99.90;;;;;;4085356;29;20747;-91
2022/10/06 02:51:14;;;;;;;16.67;1.85;;;12.80;99.90;;;;;;4101040;28;20194;-87
2022/10/06 02:53:17;;;;;;;9.38;1.67;;;12.90;99.90;;;;;;4085471;29;20181;-88
2022/10/06 02:55:18;;;;;;;20.35;2.55;;;12.80;99.90;;;;;;4101198;29;20564;-88
2022/10/06 02:57:18;;;;;;;20.50;2.00;;;12.80;99.90;;;;;;4085340;29;20187;-95
2022/10/06 02:59:19;;;;;;;20.55;2.53;;;12.80;99.90;;;;;;4084870;29;20267;-89
2022/10/06 03:01:24;;;;;;;14.70;2.30;;;12.80;99.90;;;;;;4085231;29;20593;-88
2022/10/06 03:03:26;;;;;;;16.70;1.80;;;12.70;99.90;;;;;;4085232;29;20180;-88
2022/10/06 03:05:27;;;;;;;15.98;1.80;;;12.60;99.90;;;;;;4085102;29;20179;-96
2022/10/06 03:07:27;;;;;;;20.80;2.17;;;12.60;99.90;;;;;;4101088;29;20206;-93
2022/10/06 03:09:28;;;;;;;21.30;2.80;;;12.50;99.90;;;;;;4101285;28;20182;-93
2022/10/06 03:11:32;;;;;;;18.10;1.80;;;12.60;99.90;;;;;;4100964;29;20209;-93
2022/10/06 03:13:32;;;;;;;17.17;1.90;;;12.60;99.90;;;;;;4085455;29;20227;-88
2022/10/06 03:15:33;;;;;;;21.42;2.13;;;12.50;99.90;;;;;;4100769;29;20237;-95
2022/10/06 03:17:34;;;;;;;15.43;2.03;;;12.40;99.90;;;;;;4084931;29;20648;-95
2022/10/06 03:19:36;;;;;;;17.90;2.88;;;12.50;99.90;;;;;;4084716;29;20196;-88
2022/10/06 03:21:39;;;;;;;11.35;1.80;;;12.40;99.90;;;;;;4084899;28;20179;-94
2022/10/06 03:23:44;;;;;;;20.20;2.53;;;12.50;99.90;;;;;;4100845;29;20632;-94
2022/10/06 03:25:55;;;;;;;17.48;2.80;;;12.50;99.90;;;;;;4084770;29;20179;-96
2022/10/06 03:27:56;;;;;;;24.63;2.35;;;12.50;99.90;;;;;;4085037;29;20270;-88
2022/10/06 03:29:56;;;;;;;16.05;2.08;;;12.50;99.90;;;;;;4100574;28;20249;-89
2022/10/06 03:31:59;;;;;;;16.35;2.10;;;12.50;99.90;;;;;;4100916;28;20202;-88
2022/10/06 03:34:00;;;;;;;13.88;1.92;;;12.50;99.90;;;;;;4084622;29;20187;-88
2022/10/06 03:36:03;;;;;;;19.20;2.45;;;12.40;99.90;;;;;;4084632;29;20234;-88
2022/10/06 03:38:04;;;;;;;23.35;2.65;;;12.50;99.90;;;;;;4100493;28;20182;-88
2022/10/06 03:40:05;;;;;;;16.42;1.80;;;12.40;99.90;;;;;;4084514;29;20195;-88
2022/10/06 03:42:07;;;;;;;10.38;1.67;;;12.40;99.90;;;;;;4084710;29;20176;-88
2022/10/06 03:44:07;;;;;;;19.05;2.22;;;12.30;99.90;;;;;;4100500;29;20586;-90
2022/10/06 03:46:13;;;;;;;22.70;2.13;;;12.30;99.90;;;;;;4084716;29;20735;-95
2022/10/06 03:48:13;;;;;;;12.00;1.90;;;12.30;99.90;;;;;;4084564;29;20633;-94
2022/10/06 03:50:14;;;;;;;24.95;2.95;;;12.20;99.90;;;;;;4084665;29;20290;-88
2022/10/06 03:52:15;;;;;;;24.63;1.85;;;12.20;99.90;;;;;;4084540;29;20168;-94
2022/10/06 03:54:16;;;;;;;19.83;2.45;;;12.20;99.90;;;;;;4084554;29;20385;-88
2022/10/06 03:56:19;;;;;;;8.90;2.00;;;12.20;99.90;;;;;;4116175;28;20214;-94
2022/10/06 03:58:19;;;;;;;20.15;2.10;;;12.20;99.90;;;;;;4101936;28;20284;-89
2022/10/06 04:00:20;;;;;;;20.60;2.63;;;12.20;99.90;;;;;;4084205;29;20274;-95
2022/10/06 04:02:21;;;;;;;16.67;2.25;;;12.20;99.90;;;;;;4100146;29;20490;-88
2022/10/06 04:04:22;;;;;;;20.30;2.03;;;12.20;99.90;;;;;;4100452;29;20262;-90
2022/10/06 04:06:29;;;;;;;18.98;2.65;;;12.30;99.90;;;;;;4100423;29;20603;-90
2022/10/06 04:08:33;;;;;;;12.52;1.80;;;12.20;99.90;;;;;;4084608;29;20283;-90
2022/10/06 04:10:34;;;;;;;17.77;2.08;;;12.30;99.90;;;;;;4084283;29;20691;-90
2022/10/06 04:12:35;;;;;;;11.85;1.58;;;12.30;99.90;;;;;;4084501;29;20180;-88
2022/10/06 04:14:36;;;;;;;16.73;2.03;;;12.30;99.90;;;;;;4084303;29;20183;-95
2022/10/06 04:16:45;;;;;;;21.05;2.47;;;12.20;99.90;;;;;;4084338;29;20813;-89
2022/10/06 04:18:49;;;;;;;17.80;2.13;;;12.20;99.90;;;;;;4084323;28;20323;-88
2022/10/06 04:20:57;;;;;;;17.92;2.05;;;12.10;99.90;;;;;;4099985;28;20667;-89
2022/10/06 04:22:58;;;;;;;18.83;2.53;;;12.10;99.90;;;;;;4084337;29;20651;-88
2022/10/06 04:24:59;;;;;;;14.90;2.20;;;12.00;99.90;;;;;;4100220;28;20261;-88
2022/10/06 04:29:28;;;;;;;22.83;2.30;;;12.00;99.90;;;;;;4100144;28;20277;-88
2022/10/06 04:31:35;;;;;;;15.18;1.67;;;12.00;99.90;;;;;;4086380;28;20179;-90
2022/10/06 04:33:37;;;;;;;15.18;1.83;;;12.10;99.90;;;;;;4087450;29;20175;-88
2022/10/06 04:35:37;;;;;;;16.33;2.15;;;12.10;99.90;;;;;;4087074;29;20306;-87
2022/10/06 04:37:38;;;;;;;16.00;2.10;;;12.20;99.90;;;;;;4087318;29;20246;-92
2022/10/06 04:39:39;;;;;;;27.80;3.05;;;12.20;99.90;;;;;;4087290;29;20206;-88
2022/10/06 04:41:46;;;;;;;19.33;2.53;;;12.20;99.90;;;;;;4102964;28;20175;-88
2022/10/06 04:43:49;;;;;;;16.77;2.17;;;12.10;99.90;;;;;;4087428;28;20176;-88
2022/10/06 04:45:57;;;;;;;19.20;1.85;;;12.10;99.90;;;;;;4087328;28;20195;-94
2022/10/06 04:47:58;;;;;;;18.95;2.58;;;12.00;99.90;;;;;;4087359;29;20175;-91
2022/10/06 04:49:59;;;;;;;23.90;2.72;;;12.00;99.90;;;;;;4087165;29;20200;-93
2022/10/06 04:52:00;;;;;;;20.05;2.15;;;11.90;99.90;;;;;;4103034;29;20198;-94
2022/10/06 04:54:04;;;;;;;17.15;2.55;;;11.90;99.90;;;;;;4087658;28;20176;-91
2022/10/06 04:56:23;;;;;;;17.25;2.53;;;11.90;99.90;;;;;;4087264;29;20223;-88
2022/10/06 04:58:24;;;;;;;16.45;2.38;;;11.80;99.90;;;;;;4087146;29;20252;-89
2022/10/06 05:00:25;;;;;;;19.73;2.58;;;11.80;99.90;;;;;;4087049;29;20207;-95
2022/10/06 05:02:28;;;;;;;17.67;2.22;;;11.80;99.90;;;;;;4102996;28;20656;-88
2022/10/06 05:04:29;;;;;;;18.88;2.25;;;11.80;99.90;;;;;;4087362;29;20186;-88
2022/10/06 05:06:39;;;;;;;25.20;2.63;;;11.80;99.90;;;;;;4086883;29;20636;-89
2022/10/06 05:08:40;;;;;;;19.60;2.53;;;11.90;99.90;;;;;;4087236;29;20175;-94
2022/10/06 05:10:41;;;;;;;22.77;1.92;;;11.90;99.90;;;;;;4086852;29;20206;-88
2022/10/06 05:12:42;;;;;;;19.85;2.45;;;11.90;99.90;;;;;;4086939;29;20267;-87
2022/10/06 05:14:45;;;;;;;16.17;2.10;;;11.80;99.90;;;;;;4102031;29;20171;-88
2022/10/06 05:16:47;;;;;;;17.20;2.50;;;11.80;99.90;;;;;;4102101;28;20221;-94
2022/10/06 05:18:48;;;;;;;14.07;2.05;;;11.70;99.90;;;;;;4086143;29;20720;-95
2022/10/06 05:21:02;;;;;;;14.18;2.30;;;11.70;99.90;;;;;;4101967;28;20199;-95
2022/10/06 05:23:05;;;;;;;24.92;2.55;;;11.70;99.90;;;;;;4102032;28;20179;-96
2022/10/06 05:25:07;;;;;;;20.85;2.72;;;11.70;99.90;;;;;;4086309;29;20192;-95
2022/10/06 05:27:08;;;;;;;20.58;2.90;;;11.60;99.90;;;;;;4086086;29;20184;-92
2022/10/06 05:29:09;;;;;;;22.15;1.95;;;11.60;99.90;;;;;;4101992;29;20206;-88
2022/10/06 05:31:19;;;;;;;18.50;2.22;;;11.70;99.90;;;;;;4102095;28;20186;-87
2022/10/06 05:33:20;;;;;;;24.92;2.15;;;11.70;99.90;;;;;;4101870;29;20175;-88
2022/10/06 05:35:21;;;;;;;31.30;3.05;;;11.70;99.90;;;;;;4086188;29;20211;-87
2022/10/06 05:37:21;;;;;;;29.15;3.35;;;11.60;99.90;;;;;;4085982;29;20659;-88
2022/10/06 05:39:22;;;;;;;14.90;2.22;;;11.60;99.90;;;;;;4085894;29;20172;-91
2022/10/06 05:41:29;;;;;;;25.42;2.58;;;11.50;99.90;;;;;;4101675;28;20185;-89
2022/10/06 05:43:31;;;;;;;14.82;2.03;;;11.60;99.90;;;;;;4085997;28;20172;-88
2022/10/06 05:45:32;;;;;;;27.88;2.88;;;11.50;99.90;;;;;;4085987;29;20172;-96
2022/10/06 05:47:33;;;;;;;27.02;2.42;;;11.40;99.90;;;;;;4085686;29;20239;-88
2022/10/06 05:49:34;;;;;;;21.02;2.80;;;11.40;99.90;;;;;;4085736;29;20199;-88
2022/10/06 05:51:39;;;;;;;22.75;2.95;;;11.40;99.90;;;;;;4086098;29;20688;-89
2022/10/06 05:53:45;;;;;;;20.05;2.63;;;11.40;99.90;;;;;;4086303;29;20674;-92
2022/10/06 05:55:46;;;;;;;20.00;2.35;;;11.50;99.90;;;;;;4101511;29;20203;-88
2022/10/06 05:57:47;;;;;;;24.83;2.85;;;11.60;99.90;;;;;;4085830;29;20215;-92
2022/10/06 05:59:47;;;;;;;21.20;3.25;;;11.60;99.90;;;;;;4101246;28;20216;-88
2022/10/06 06:01:48;;;;;;;23.20;2.45;;;11.60;99.90;;;;;;4085668;29;20195;-88
2022/10/06 06:03:59;;;;;;;23.55;3.13;;;11.60;99.90;;;;;;4086785;29;20189;-95
2022/10/06 06:06:01;;;;;;;18.20;2.58;;;11.60;99.90;;;;;;4102698;28;20167;-88
2022/10/06 06:08:02;;;;;;;26.67;3.75;;;11.50;99.90;;;;;;4085629;29;20222;-88
2022/10/06 06:10:03;;;;;;;18.10;3.10;;;11.50;99.90;;;;;;4101070;28;20186;-88
2022/10/06 06:12:04;;;;;;;26.92;2.67;;;11.50;99.90;;;;;;4100919;28;20536;-88
2022/10/06 06:15:59;;;;;;;26.80;3.47;;;11.60;99.90;;;;;;4101621;29;20186;-90
2022/10/06 06:16:41;;;;;;;24.00;3.13;;;11.50;99.90;;;;;;4101434;28;20190;-88
2022/10/06 06:18:42;;;;;;;20.48;2.80;;;11.50;99.90;;;;;;4085133;29;20259;-89
2022/10/06 06:20:54;;;;;;;26.33;2.70;;;11.60;99.90;;;;;;4085543;29;20199;-93
2022/10/06 06:22:55;;;;;;;21.08;2.53;;;11.70;99.90;;;;;;4085392;29;20730;-88
2022/10/06 06:25:00;;;;;;;26.70;2.20;;;11.60;99.90;;;;;;4085885;29;20243;-88
2022/10/06 06:27:00;;;;;;;16.92;2.63;;;12.00;99.90;;;;;;4085060;29;20176;-88
2022/10/06 06:29:03;;;;;;;18.33;2.92;;;12.50;99.90;;;;;;4085719;29;20593;-88
2022/10/06 06:31:06;;;;;;;14.73;1.83;;;13.30;99.90;;;;;;4084550;29;20187;-90
2022/10/06 06:33:07;;;;;;;23.88;2.50;;;14.10;99.90;;;;;;4084869;29;20290;-88
2022/10/06 06:35:08;;;;;;;16.33;2.88;;;14.80;99.90;;;;;;4100874;29;20215;-88
2022/10/06 06:37:09;;;;;;;17.30;2.20;;;15.30;99.90;;;;;;4085402;29;20640;-88
2022/10/06 06:39:13;;;;;;;14.43;2.45;;;16.10;99.90;;;;;;4100697;29;20175;-88
2022/10/06 06:41:20;;;;;;;16.10;2.55;;;16.60;99.90;;;;;;4084940;29;20179;-88
2022/10/06 06:43:22;;;;;;;13.25;2.10;;;17.20;99.90;;;;;;4084940;29;20301;-89
2022/10/06 06:45:45;;;;;;;20.10;2.85;;;17.80;99.90;;;;;;4087615;29;20196;-88
2022/10/06 06:47:53;;;;;;;14.07;2.33;;;18.50;99.90;;;;;;4100677;28;20180;-90
2022/10/06 06:49:54;;;;;;;12.27;2.60;;;19.20;99.90;;;;;;4084441;29;20199;-88
2022/10/06 06:51:56;;;;;;;18.05;2.33;;;19.50;99.90;;;;;;4084971;28;20172;-87
2022/10/06 06:54:01;;;;;;;16.27;2.30;;;19.80;99.90;;;;;;4084050;28;20210;-89
2022/10/06 06:56:02;;;;;;;15.30;2.40;;;20.20;99.90;;;;;;4084244;29;20215;-95
2022/10/06 06:58:05;;;;;;;14.27;2.40;;;20.60;99.90;;;;;;4085002;29;20179;-88
2022/10/06 07:00:07;;;;;;;18.45;2.95;;;21.00;99.90;;;;;;4100134;28;20624;-88
2022/10/06 07:02:10;;;;;;;14.07;2.50;;;21.10;99.90;;;;;;4100349;28;20178;-88
2022/10/06 07:04:15;;;;;;;6.68;1.98;;;21.00;99.90;;;;;;4084388;29;20172;-87
2022/10/06 07:06:17;;;;;;;17.92;2.55;;;21.20;99.90;;;;;;4084504;29;20691;-94
2022/10/06 07:08:19;;;;;;;13.95;2.60;;;20.70;99.90;;;;;;4100451;28;20175;-88
2022/10/06 07:10:20;;;;;;;16.52;2.47;;;21.20;99.90;;;;;;4100299;29;20361;-88
2022/10/06 07:12:21;;;;;;;18.73;2.47;;;21.10;99.90;;;;;;4084427;29;20180;-88
2022/10/06 07:14:32;;;;;;;20.48;2.58;;;20.40;99.90;;;;;;4085622;29;20183;-88
2022/10/06 07:25:54;;;;;;;11.43;2.40;;;17.50;99.90;;;;;;4100163;29;20286;-88
2022/10/06 07:27:55;;;;;;;18.73;2.20;;;17.20;99.90;;;;;;4084156;28;20179;-87
2022/10/06 07:30:01;;;;;;;18.75;2.58;;;16.90;99.90;;;;;;4084472;29;20200;-88
2022/10/06 07:32:01;;;;;;;15.55;2.15;;;17.00;99.90;;;;;;4099454;29;20612;-87
2022/10/06 07:34:03;;;;;;;20.65;2.60;;;16.80;99.90;;;;;;4084239;29;20514;-91
2022/10/06 07:36:04;;;;;;;17.42;2.10;;;17.00;99.90;;;;;;4100186;28;20226;-88
2022/10/06 07:38:07;;;;;;;18.83;2.83;;;17.40;99.90;;;;;;4100076;29;20175;-94
2022/10/06 07:40:13;;;;;;;17.02;2.13;;;18.10;99.90;;;;;;4084088;29;20203;-87
2022/10/06 07:42:16;;;;;;;15.63;2.78;;;18.10;99.90;;;;;;4083632;29;20616;-88
2022/10/06 07:44:16;;;;;;;14.10;2.45;;;17.60;99.90;;;;;;4084392;29;20207;-96
2022/10/06 07:46:19;;;;;;;16.90;2.65;;;17.30;99.90;;;;;;4100453;29;20206;-87
2022/10/06 07:48:27;;;;;;;13.35;2.67;;;16.90;99.90;;;;;;4099400;29;20182;-91
2022/10/06 07:50:32;;;;;;;19.23;2.53;;;16.80;99.90;;;;;;4084236;29;20792;-96
2022/10/06 07:52:38;;;;;;;18.40;1.92;;;16.60;99.90;;;;;;4084145;29;20275;-88
2022/10/06 07:54:39;;;;;;;20.77;2.47;;;17.60;99.90;;;;;;4083566;29;20171;-89
2022/10/06 07:56:57;;;;;;;15.70;2.53;;;18.80;99.90;;;;;;4099469;29;20559;-88
2022/10/06 07:58:58;;;;;;;15.80;2.70;;;20.20;99.90;;;;;;4099667;29;20178;-87
2022/10/06 08:01:10;;;;;;;15.75;2.90;;;20.50;99.90;;;;;;4083402;29;20702;-88
2022/10/06 08:03:16;;;;;;;27.00;2.42;;;20.90;99.90;;;;;;4083363;29;20179;-89
2022/10/06 08:05:17;;;;;;;18.23;2.42;;;21.60;99.90;;;;;;4098805;28;20539;-87
2022/10/06 08:07:18;;;;;;;20.45;2.42;;;21.10;99.90;;;;;;4083285;29;20205;-88
2022/10/06 08:09:18;;;;;;;12.07;2.08;;;21.60;99.90;;;;;;4099438;28;20182;-87
2022/10/06 08:11:21;;;;;;;11.23;1.95;;;22.50;99.90;;;;;;4083594;29;20195;-88
2022/10/06 08:13:23;;;;;;;19.52;2.42;;;21.80;99.90;;;;;;4083513;29;20184;-88
2022/10/06 08:15:24;;;;;;;10.88;1.95;;;22.50;99.90;;;;;;4083277;29;20226;-88
2022/10/06 08:17:24;;;;;;;19.48;3.15;;;22.90;99.90;;;;;;4099008;29;20584;-88
2022/10/06 08:19:25;;;;;;;16.65;2.63;;;23.50;99.90;;;;;;4099279;28;20266;-87
2022/10/06 08:21:28;;;;;;;13.93;2.25;;;23.70;99.90;;;;;;4083277;29;20175;-87
2022/10/06 08:23:30;;;;;;;14.85;2.40;;;23.90;99.90;;;;;;4083361;29;20172;-88
2022/10/06 08:25:32;;;;;;;11.75;2.30;;;24.20;99.90;;;;;;4114964;28;20258;-91
2022/10/06 08:27:34;;;;;;;13.00;2.42;;;24.10;99.90;;;;;;4083129;29;20180;-86
2022/10/06 08:29:34;;;;;;;14.10;2.38;;;24.60;99.90;;;;;;4099470;28;20183;-93
2022/10/06 08:31:35;;;;;;;11.18;2.13;;;24.50;99.90;;;;;;4083569;29;20190;-89
2022/10/06 08:33:37;;;;;;;11.40;2.13;;;24.00;99.90;;;;;;4098955;29;20701;-86
2022/10/06 08:35:38;;;;;;;13.05;2.10;;;23.60;99.90;;;;;;4099463;29;20199;-87
2022/10/06 08:37:39;;;;;;;16.38;2.05;;;22.80;99.90;;;;;;4100459;28;20178;-86
2022/10/06 08:39:41;;;;;;;12.40;2.65;;;23.10;99.90;;;;;;4098930;28;20191;-87
2022/10/06 08:41:50;;;;;;;12.00;2.00;;;23.80;99.90;;;;;;4083073;29;20184;-87
2022/10/06 08:44:17;;;;;;;12.52;2.15;;;23.60;99.90;;;;;;4083532;29;20182;-89
2022/10/06 08:46:21;;;;;;;14.63;2.30;;;23.80;99.90;;;;;;4083453;29;20184;-86
2022/10/06 08:48:27;;;;;;;13.32;2.15;;;24.20;99.90;;;;;;4082995;29;20203;-87
2022/10/06 08:50:32;;;;;;;11.40;1.98;;;24.10;99.90;;;;;;4083075;29;20263;-86
2022/10/06 08:52:40;;;;;;;14.40;2.08;;;23.90;99.90;;;;;;4099628;28;20167;-87
2022/10/06 08:55:03;;;;;;;11.15;1.88;;;24.00;99.90;;;;;;4083279;29;20247;-87
2022/10/06 08:57:20;;;;;;;13.05;2.30;;;23.80;99.90;;;;;;4083192;29;20184;-88
2022/10/06 08:59:21;;;;;;;12.55;2.22;;;24.20;99.90;;;;;;4083312;29;20195;-88
2022/10/06 09:01:28;;;;;;;12.55;1.67;;;22.70;99.90;;;;;;4083535;29;20214;-86
2022/10/06 09:03:29;;;;;;;11.38;2.22;;;23.00;99.90;;;;;;4083264;29;20174;-94
2022/10/06 09:05:33;;;;;;;10.57;2.10;;;22.80;99.90;;;;;;4099415;29;20190;-87
2022/10/06 09:07:57;;;;;;;10.40;1.98;;;23.60;99.90;;;;;;4083381;29;20288;-87
2022/10/06 09:10:22;;;;;;;7.47;1.70;;;24.00;99.90;;;;;;4083535;29;20207;-91
2022/10/06 09:12:35;;;;;;;13.88;1.95;;;24.00;99.90;;;;;;4082857;29;20663;-87
2022/10/06 09:14:46;;;;;;;9.93;1.92;;;23.70;99.90;;;;;;4099363;29;20222;-87
2022/10/06 09:16:52;;;;;;;11.40;1.83;;;24.00;99.90;;;;;;4084206;29;20197;-87
2022/10/06 09:19:14;;;;;;;12.35;1.90;;;24.30;99.90;;;;;;4086210;29;20180;-87
2022/10/06 09:21:24;;;;;;;15.10;2.13;;;24.60;99.90;;;;;;4102663;28;20182;-87
2022/10/06 09:23:48;;;;;;;9.77;1.70;;;24.80;99.90;;;;;;4086586;29;20732;-88
2022/10/06 09:25:49;;;;;;;8.88;1.58;;;24.60;99.90;;;;;;4102372;28;20175;-88
2022/10/06 09:27:57;;;;;;;7.13;1.67;;;24.30;99.90;;;;;;4085915;29;20182;-87
2022/10/06 09:30:03;;;;;;;17.05;2.20;;;24.30;99.90;;;;;;4102620;28;20241;-90
2022/10/06 09:32:05;;;;;;;10.52;1.80;;;23.80;99.90;;;;;;4086110;29;20179;-87
2022/10/06 09:34:33;;;;;;;6.18;1.80;;;23.30;99.90;;;;;;4102005;29;20182;-87
2022/10/06 09:37:02;;;;;;;10.98;1.83;;;23.00;99.90;;;;;;4086719;29;20219;-94
2022/10/06 09:39:04;;;;;;;10.65;1.65;;;22.00;99.90;;;;;;4103406;28;20178;-88
2022/10/06 09:41:04;;;;;;;10.93;1.77;;;21.90;99.90;;;;;;4101604;28;20685;-86
2022/10/06 09:43:27;;;;;;;7.57;1.50;;;21.50;99.90;;;;;;4102598;29;20175;-88
2022/10/06 09:45:30;;;;;;;10.68;1.52;;;21.20;99.90;;;;;;4103032;28;20189;-86
2022/10/06 09:47:40;;;;;;;12.27;1.65;;;21.10;99.90;;;;;;4101787;29;20212;-94
2022/10/06 09:49:42;;;;;;;8.88;1.50;;;20.30;99.90;;;;;;4102005;28;20557;-87
2022/10/06 09:52:13;;;;;;;12.13;1.70;;;20.20;99.90;;;;;;4101614;29;20202;-87
2022/10/06 09:54:16;;;;;;;7.78;1.65;;;19.90;99.90;;;;;;4085704;29;20731;-87
2022/10/06 09:56:18;;;;;;;15.48;1.80;;;19.40;99.90;;;;;;4085593;29;20207;-87
2022/10/06 09:58:21;;;;;;;12.70;1.35;;;18.80;99.90;;;;;;4102249;28;20179;-89
2022/10/06 10:00:33;;;;;;;12.82;1.70;;;18.60;99.90;;;;;;4101982;28;20598;-88
2022/10/06 10:02:35;;;;;;;14.93;1.33;;;18.40;99.90;;;;;;4086489;29;20180;-87
2022/10/06 10:04:39;;;;;;;6.90;1.13;;;18.20;99.90;;;;;;4101363;28;20553;-87
2022/10/06 10:06:40;;;;;;;11.50;1.50;;;18.30;99.90;;;;;;4085711;28;20580;-88
2022/10/06 10:08:41;;;;;;;8.50;1.25;;;18.10;99.90;;;;;;4101147;29;20179;-92
2022/10/06 10:10:41;;;;;;;9.23;1.38;;;17.80;99.90;;;;;;4100521;28;20544;-87
2022/10/06 10:13:23;;;;;;;9.07;1.50;;;18.00;99.90;;;;;;4084924;29;20163;-88
2022/10/06 10:15:29;;;;;;;10.75;1.17;;;18.10;99.90;;;;;;4079881;29;20227;-86
2022/10/06 10:17:33;;;;;;;8.40;0.90;;;17.90;99.90;;;;;;4085419;29;20190;-86
2022/10/06 10:19:41;;;;;;;10.05;1.40;;;17.80;99.90;;;;;;4100758;28;20548;-92
2022/10/06 10:21:44;;;;;;;14.25;1.30;;;17.80;99.90;;;;;;4084861;29;20201;-87
2022/10/06 10:23:55;;;;;;;10.43;1.50;;;17.40;99.90;;;;;;4085330;29;20238;-87
2022/10/06 10:26:09;;;;;;;6.03;1.10;;;17.60;99.90;;;;;;4100904;28;20178;-87
2022/10/06 10:28:16;;;;;;;7.97;1.08;;;17.70;99.90;;;;;;4084587;29;20198;-88
2022/10/06 10:30:17;;;;;;;9.73;1.80;;;17.70;99.90;;;;;;4100846;28;20198;-94
2022/10/06 10:32:28;;;;;;;6.22;1.08;;;18.00;99.90;;;;;;4100726;29;20175;-86
2022/10/06 10:34:49;;;;;;;6.63;1.00;;;18.00;99.90;;;;;;4100618;29;20646;-86
2022/10/06 10:37:24;;;;;;;5.18;1.00;;;17.90;99.90;;;;;;4084928;29;20203;-87
2022/10/06 10:39:59;;;;;;;8.65;1.10;;;17.90;99.90;;;;;;4100634;28;20189;-87
2022/10/06 10:42:06;;;;;;;8.57;1.00;;;18.20;99.90;;;;;;4085113;29;20186;-87
2022/10/06 10:44:49;;;;;;;8.10;1.48;;;18.30;99.90;;;;;;4103055;28;20403;-86
2022/10/06 10:46:59;;;;;;;9.38;1.15;;;18.40;99.90;;;;;;4083960;29;20611;-87
2022/10/06 10:49:22;;;;;;;6.15;1.00;;;18.30;99.90;;;;;;4084382;29;20250;-89
2022/10/06 10:51:33;;;;;;;6.57;1.25;;;18.40;99.90;;;;;;4085477;29;20592;-87
2022/10/06 10:54:07;;;;;;;8.65;1.40;;;18.70;99.90;;;;;;4084536;29;20235;-92